createdAt,value
2023-03-06T00:01:49.830Z,8.88
2023-03-06T00:04:53.513Z,8.90
2023-03-06T00:07:56.406Z,8.70
2023-03-06T00:10:59.634Z,9.00
2023-03-06T00:14:02.450Z,8.38
2023-03-06T00:17:05.333Z,8.07
2023-03-06T00:20:08.802Z,8.73
2023-03-06T00:23:12.706Z,8.17
2023-03-06T00:26:15.622Z,8.57
2023-03-06T00:29:18.710Z,13.15
2023-03-06T00:32:21.785Z,13.07
2023-03-06T00:35:24.638Z,18.88
2023-03-06T00:38:28.757Z,27.93
2023-03-06T00:41:32.383Z,20.50
2023-03-06T00:44:35.204Z,14.90
2023-03-06T00:47:38.073Z,12.43
2023-03-06T00:50:40.854Z,11.05
2023-03-06T00:53:43.702Z,13.43
2023-03-06T00:56:46.564Z,12.60
2023-03-06T00:59:49.371Z,14.85
2023-03-06T01:02:53.828Z,14.43
2023-03-06T01:05:58.405Z,14.23
2023-03-06T01:09:06.625Z,13.57
2023-03-06T01:12:09.804Z,11.63
2023-03-06T01:15:13.359Z,13.07
2023-03-06T01:18:16.154Z,12.90
2023-03-06T01:21:19.176Z,12.40
2023-03-06T01:24:24.084Z,11.83
2023-03-06T01:27:26.952Z,11.63
2023-03-06T01:30:29.826Z,12.48
2023-03-06T01:33:33.813Z,13.25
2023-03-06T01:36:36.969Z,13.82
2023-03-06T01:39:39.744Z,14.67
2023-03-06T01:42:43.257Z,12.87
2023-03-06T01:45:46.094Z,12.50
2023-03-06T01:48:52.629Z,12.70
2023-03-06T01:52:02.029Z,12.02
2023-03-06T01:55:23.075Z,12.03
2023-03-06T01:58:25.963Z,11.97
2023-03-06T02:01:31.315Z,12.65
2023-03-06T02:04:35.250Z,12.00
2023-03-06T02:07:38.645Z,12.32
2023-03-06T02:10:58.793Z,11.23
2023-03-06T02:14:01.705Z,11.37
2023-03-06T02:17:04.675Z,10.82
2023-03-06T02:20:12.357Z,10.55
2023-03-06T02:23:21.094Z,10.63
2023-03-06T02:26:26.591Z,10.63
2023-03-06T02:29:31.853Z,10.50
2023-03-06T02:32:38.242Z,10.23
2023-03-06T02:35:54.306Z,9.38
2023-03-06T02:38:58.017Z,9.98
2023-03-06T02:42:01.332Z,9.43
2023-03-06T02:45:10.973Z,9.20
2023-03-06T02:48:15.407Z,9.85
2023-03-06T02:51:18.659Z,9.57
2023-03-06T02:54:21.345Z,10.18
2023-03-06T02:57:24.180Z,10.07
2023-03-06T03:00:28.080Z,10.20
2023-03-06T03:03:30.968Z,10.45
2023-03-06T03:06:34.331Z,9.43
2023-03-06T03:09:38.154Z,9.65
2023-03-06T03:12:41.600Z,10.10
2023-03-06T03:15:44.607Z,10.97
2023-03-06T03:18:51.503Z,10.60
2023-03-06T03:21:57.773Z,11.48
2023-03-06T03:25:00.681Z,11.38
2023-03-06T03:28:03.643Z,11.63
2023-03-06T03:31:08.650Z,11.27
2023-03-06T03:34:12.026Z,11.02
2023-03-06T03:37:16.790Z,10.88
2023-03-06T03:40:19.696Z,11.95
2023-03-06T03:43:26.256Z,12.23
2023-03-06T03:46:29.258Z,11.40
2023-03-06T03:49:33.041Z,11.23
2023-03-06T03:52:37.457Z,11.48
2023-03-06T03:55:40.578Z,10.43
2023-03-06T03:58:43.436Z,12.20
2023-03-06T04:01:46.359Z,12.50
2023-03-06T04:04:50.167Z,13.25
2023-03-06T04:07:53.282Z,13.10
2023-03-06T04:10:56.917Z,11.57
2023-03-06T04:14:00.523Z,11.63
2023-03-06T04:17:03.578Z,12.80
2023-03-06T04:20:06.904Z,12.55
2023-03-06T04:23:10.867Z,11.93
2023-03-06T04:26:13.958Z,12.95
2023-03-06T04:29:17.270Z,14.33
2023-03-06T04:32:21.509Z,16.43
2023-03-06T04:35:24.955Z,17.65
2023-03-06T04:38:34.046Z,14.88
2023-03-06T04:41:40.524Z,13.90
2023-03-06T04:44:44.115Z,13.43
2023-03-06T04:47:47.133Z,14.83
2023-03-06T04:50:49.887Z,13.23
2023-03-06T04:53:52.731Z,12.82
2023-03-06T04:56:55.538Z,13.52
2023-03-06T04:59:58.305Z,13.30
2023-03-06T05:03:02.367Z,12.37
2023-03-06T05:06:05.645Z,12.15
2023-03-06T05:09:08.372Z,13.30
2023-03-06T05:12:11.120Z,12.32
2023-03-06T05:15:14.370Z,12.07
2023-03-06T05:18:17.789Z,12.17
2023-03-06T05:21:20.599Z,11.55
2023-03-06T05:24:23.755Z,11.98
2023-03-06T05:27:27.656Z,12.43
2023-03-06T05:30:30.509Z,11.57
2023-03-06T05:33:35.192Z,13.20
2023-03-06T05:36:37.978Z,13.70
2023-03-06T05:39:40.760Z,14.20
2023-03-06T05:42:43.705Z,15.68
2023-03-06T05:45:46.635Z,16.03
2023-03-06T05:48:49.577Z,16.47
2023-03-06T05:51:52.814Z,17.90
2023-03-06T05:54:55.715Z,16.80
2023-03-06T05:57:58.632Z,15.95
2023-03-06T06:01:09.548Z,20.57
2023-03-06T06:04:15.322Z,24.87
2023-03-06T06:07:18.352Z,20.88
2023-03-06T06:10:21.517Z,15.93
2023-03-06T06:13:24.464Z,16.90
2023-03-06T06:16:27.344Z,15.73
2023-03-06T06:19:31.120Z,16.87
2023-03-06T06:22:37.634Z,23.73
2023-03-06T06:25:40.581Z,20.85
2023-03-06T06:28:43.403Z,23.60
2023-03-06T06:31:46.864Z,20.67
2023-03-06T06:34:49.588Z,18.63
2023-03-06T06:37:52.540Z,17.40
2023-03-06T06:41:30.624Z,18.35
2023-03-06T06:44:19.411Z,16.38
2023-03-06T06:47:24.643Z,17.80
2023-03-06T06:50:27.893Z,16.73
2023-03-06T06:53:30.876Z,18.52
2023-03-06T06:56:33.866Z,16.75
2023-03-06T06:59:36.823Z,15.02
2023-03-06T07:02:39.592Z,13.30
2023-03-06T07:05:42.686Z,13.57
2023-03-06T07:08:45.652Z,14.23
2023-03-06T07:11:50.502Z,14.00
2023-03-06T07:14:54.283Z,14.93
2023-03-06T07:17:57.601Z,12.20
2023-03-06T07:21:01.388Z,12.13
2023-03-06T07:24:04.878Z,12.00
2023-03-06T07:27:08.782Z,13.10
2023-03-06T07:30:13.860Z,15.05
2023-03-06T07:33:17.348Z,14.57
2023-03-06T07:36:21.737Z,14.03
2023-03-06T07:39:24.542Z,11.70
2023-03-06T07:42:29.444Z,11.60
2023-03-06T07:45:37.136Z,12.27
2023-03-06T07:48:40.761Z,12.87
2023-03-06T07:51:43.989Z,13.17
2023-03-06T07:54:48.395Z,11.50
2023-03-06T07:57:51.751Z,11.73
2023-03-06T08:00:55.055Z,10.52
2023-03-06T08:03:59.461Z,11.90
2023-03-06T08:07:03.627Z,11.60
2023-03-06T08:10:07.178Z,11.82
2023-03-06T08:13:10.382Z,12.05
2023-03-06T08:16:18.533Z,11.10
2023-03-06T08:19:21.576Z,11.73
2023-03-06T08:22:24.410Z,10.30
2023-03-06T08:25:27.238Z,11.65
2023-03-06T08:28:30.163Z,10.80
2023-03-06T08:31:42.419Z,11.02
2023-03-06T08:34:45.817Z,9.73
2023-03-06T08:37:48.687Z,10.23
2023-03-06T08:40:51.464Z,10.02
2023-03-06T08:43:54.415Z,11.02
2023-03-06T08:46:57.253Z,9.82
2023-03-06T08:50:00.804Z,10.87
2023-03-06T08:53:42.173Z,11.03
2023-03-06T08:56:56.184Z,8.95
2023-03-06T08:59:59.638Z,10.77
2023-03-06T09:03:02.739Z,9.27
2023-03-06T09:06:06.251Z,8.33
2023-03-06T09:09:09.454Z,8.40
2023-03-06T09:12:12.452Z,8.73
2023-03-06T09:15:16.093Z,7.35
2023-03-06T09:18:24.803Z,9.45
2023-03-06T09:21:30.816Z,9.95
2023-03-06T09:24:34.169Z,8.57
2023-03-06T09:27:37.064Z,10.15
2023-03-06T09:30:41.216Z,9.07
2023-03-06T09:33:44.878Z,8.25
2023-03-06T09:36:56.891Z,9.32
2023-03-06T09:40:00.567Z,8.70
2023-03-06T09:43:03.378Z,9.98
2023-03-06T09:46:43.697Z,9.82
2023-03-06T09:49:52.979Z,8.82
2023-03-06T09:53:17.216Z,8.63
2023-03-06T09:56:31.798Z,10.90
2023-03-06T09:59:36.353Z,10.43
2023-03-06T10:02:45.483Z,11.88
2023-03-06T10:05:56.975Z,9.93
2023-03-06T10:09:12.618Z,11.27
2023-03-06T10:12:32.782Z,10.27
2023-03-06T10:15:39.576Z,10.98
2023-03-06T10:18:42.575Z,10.45
2023-03-06T10:21:59.272Z,9.57
2023-03-06T10:25:28.195Z,12.63
2023-03-06T10:28:42.930Z,12.57
2023-03-06T10:32:01.935Z,12.20
2023-03-06T10:35:15.794Z,14.38
2023-03-06T10:38:21.847Z,13.10
2023-03-06T10:41:30.621Z,10.60
2023-03-06T10:44:33.360Z,14.57
2023-03-06T10:47:37.779Z,12.90
2023-03-06T10:50:43.681Z,12.30
2023-03-06T10:54:11.283Z,10.70
2023-03-06T10:57:32.518Z,13.77
2023-03-06T11:00:38.763Z,14.23
2023-03-06T11:03:45.615Z,13.50
2023-03-06T11:07:07.025Z,12.30
2023-03-06T11:10:23.449Z,12.52
2023-03-06T11:13:29.613Z,11.52
2023-03-06T11:16:32.564Z,15.20
2023-03-06T11:19:35.517Z,12.93
2023-03-06T11:22:40.090Z,12.95
2023-03-06T11:25:58.369Z,12.95
2023-03-06T11:29:04.338Z,12.68
2023-03-06T11:32:18.757Z,11.67
2023-03-06T11:35:27.756Z,12.10
2023-03-06T11:38:40.514Z,16.35
2023-03-06T11:42:07.021Z,14.20
2023-03-06T11:45:34.962Z,14.70
2023-03-06T11:48:44.220Z,15.73
2023-03-06T11:52:03.186Z,13.80
2023-03-06T11:55:12.813Z,11.73
2023-03-06T11:58:40.512Z,13.63
2023-03-06T12:02:53.991Z,12.45
2023-03-06T12:06:37.020Z,11.10
2023-03-06T12:10:02.235Z,12.55
2023-03-06T12:13:16.409Z,11.77
2023-03-06T12:16:52.929Z,13.10
2023-03-06T12:20:20.671Z,11.52
2023-03-06T12:23:35.461Z,13.73
2023-03-06T12:26:56.988Z,18.42
2023-03-06T12:30:38.165Z,21.42
2023-03-06T12:34:05.890Z,17.15
2023-03-06T12:37:29.877Z,13.60
2023-03-06T12:40:38.808Z,10.80
2023-03-06T12:44:00.824Z,12.82
2023-03-06T12:47:08.890Z,12.63
2023-03-06T12:50:25.442Z,11.68
2023-03-06T12:53:31.015Z,11.27
2023-03-06T12:56:35.630Z,10.83
2023-03-06T12:59:48.572Z,10.10
2023-03-06T13:03:06.715Z,10.75
2023-03-06T13:06:32.447Z,11.57
2023-03-06T13:09:59.956Z,13.43
2023-03-06T13:13:57.732Z,10.23
2023-03-06T13:17:31.714Z,12.75
2023-03-06T13:20:40.113Z,14.38
2023-03-06T13:23:52.152Z,12.15
2023-03-06T13:27:01.403Z,12.23
2023-03-06T13:30:19.891Z,10.93
2023-03-06T13:33:30.245Z,10.00
2023-03-06T13:36:39.639Z,9.68
2023-03-06T13:40:05.996Z,11.82
2023-03-06T13:43:08.836Z,8.40
2023-03-06T13:46:38.392Z,9.07
2023-03-06T13:49:46.599Z,7.53
2023-03-06T13:52:57.819Z,7.88
2023-03-06T13:56:16.114Z,7.32
2023-03-06T13:59:41.786Z,7.78
2023-03-06T14:03:15.519Z,8.27
2023-03-06T14:06:37.480Z,8.25
2023-03-06T14:09:45.921Z,8.27
2023-03-06T14:12:51.821Z,9.20
2023-03-06T14:15:55.865Z,10.60
2023-03-06T14:19:00.889Z,8.67
2023-03-06T14:22:06.111Z,9.77
2023-03-06T14:25:35.218Z,8.57
2023-03-06T14:28:38.142Z,11.23
2023-03-06T14:31:43.064Z,19.98
2023-03-06T14:34:47.131Z,12.93
2023-03-06T14:37:53.385Z,14.88
2023-03-06T14:40:56.565Z,12.45
2023-03-06T14:44:16.919Z,11.82
2023-03-06T14:47:27.503Z,14.50
2023-03-06T14:50:34.170Z,12.50
2023-03-06T14:53:37.174Z,16.10
2023-03-06T14:56:46.115Z,14.80
2023-03-06T14:59:58.208Z,13.10
2023-03-06T15:03:02.114Z,12.43
2023-03-06T15:06:06.398Z,16.00
2023-03-06T15:09:20.507Z,17.55
2023-03-06T15:12:23.633Z,14.73
2023-03-06T15:15:30.027Z,13.63
2023-03-06T15:18:36.402Z,11.98
2023-03-06T15:21:39.350Z,12.13
2023-03-06T15:24:42.246Z,12.73
2023-03-06T15:28:22.769Z,11.70
2023-03-06T15:31:31.059Z,13.48
2023-03-06T15:34:33.900Z,8.73
2023-03-06T15:37:36.700Z,9.53
2023-03-06T15:40:39.524Z,9.93
2023-03-06T15:43:42.286Z,10.45
2023-03-06T15:46:45.117Z,22.58
2023-03-06T15:49:52.116Z,13.67
2023-03-06T15:52:55.382Z,13.77
2023-03-06T15:55:59.469Z,26.80
2023-03-06T15:59:02.922Z,56.33
2023-03-06T16:02:14.960Z,43.42
2023-03-06T16:05:18.588Z,26.00
2023-03-06T16:08:21.584Z,24.17
2023-03-06T16:11:35.327Z,28.23
2023-03-06T16:14:47.558Z,30.73
2023-03-06T16:17:50.362Z,27.35
2023-03-06T16:20:53.180Z,25.27
2023-03-06T16:23:56.290Z,23.90
2023-03-06T16:27:01.742Z,23.42
2023-03-06T16:30:05.567Z,16.77
2023-03-06T16:33:12.972Z,18.83
2023-03-06T16:36:27.149Z,21.20
2023-03-06T16:39:30.200Z,22.80
2023-03-06T16:42:34.337Z,19.85
2023-03-06T16:45:39.342Z,19.73
2023-03-06T16:48:42.526Z,23.38
2023-03-06T16:51:45.538Z,31.97
2023-03-06T16:54:48.330Z,31.37
2023-03-06T16:57:51.276Z,26.35
2023-03-06T17:00:54.798Z,14.68
2023-03-06T17:03:59.005Z,12.07
2023-03-06T17:07:01.993Z,11.23
2023-03-06T17:10:07.107Z,13.10
2023-03-06T17:13:10.988Z,13.73
2023-03-06T17:16:16.567Z,13.05
2023-03-06T17:19:19.565Z,11.55
2023-03-06T17:22:22.566Z,11.47
2023-03-06T17:25:25.290Z,11.87
2023-03-06T17:28:28.031Z,24.77
2023-03-06T17:31:31.161Z,20.67
2023-03-06T17:34:34.542Z,23.15
2023-03-06T17:37:37.651Z,38.85
2023-03-06T17:40:41.801Z,63.67
2023-03-06T17:43:44.619Z,66.43
2023-03-06T17:46:47.565Z,53.72
2023-03-06T17:49:50.571Z,55.97
2023-03-06T17:52:56.664Z,50.22
2023-03-06T17:55:59.605Z,42.70
2023-03-06T17:59:02.549Z,57.97
2023-03-06T18:02:06.746Z,79.68
2023-03-06T18:05:10.040Z,73.28
2023-03-06T18:08:13.222Z,71.13
2023-03-06T18:11:17.699Z,53.67
2023-03-06T18:14:20.985Z,25.13
2023-03-06T18:17:24.125Z,16.92
2023-03-06T18:20:26.966Z,14.07
2023-03-06T18:23:30.044Z,14.33
2023-03-06T18:26:33.167Z,13.30
2023-03-06T18:29:36.178Z,14.55
2023-03-06T18:32:39.209Z,14.45
2023-03-06T18:35:44.288Z,13.77
2023-03-06T18:38:48.129Z,12.97
2023-03-06T18:41:51.925Z,14.87
2023-03-06T18:44:54.950Z,16.77
2023-03-06T18:47:57.838Z,20.33
2023-03-06T18:51:06.195Z,18.45
2023-03-06T18:54:11.730Z,17.50
2023-03-06T18:57:14.791Z,16.33
2023-03-06T19:00:18.434Z,34.08
2023-03-06T19:03:21.683Z,30.42
2023-03-06T19:06:26.983Z,32.03
2023-03-06T19:09:30.683Z,30.33
2023-03-06T19:12:35.544Z,25.67
2023-03-06T19:15:46.299Z,26.88
2023-03-06T19:18:49.753Z,23.13
2023-03-06T19:21:53.992Z,20.15
2023-03-06T19:24:57.112Z,18.73
2023-03-06T19:28:00.609Z,20.83
2023-03-06T19:31:11.813Z,21.15
2023-03-06T19:34:14.712Z,21.45
2023-03-06T19:37:18.325Z,26.60
2023-03-06T19:40:21.346Z,28.70
2023-03-06T19:43:24.472Z,21.97
2023-03-06T19:46:27.576Z,22.92
2023-03-06T19:49:31.162Z,21.63
2023-03-06T19:52:36.712Z,21.05
2023-03-06T19:55:40.192Z,22.27
2023-03-06T19:58:44.210Z,24.57
2023-03-06T20:01:47.379Z,24.63
2023-03-06T20:04:51.547Z,28.30
2023-03-06T20:07:54.725Z,27.42
2023-03-06T20:10:57.902Z,22.43
2023-03-06T20:14:03.265Z,22.30
2023-03-06T20:17:06.335Z,22.17
2023-03-06T20:20:10.451Z,18.50
2023-03-06T20:23:15.624Z,19.60
2023-03-06T20:26:20.711Z,26.37
2023-03-06T20:29:26.642Z,31.50
2023-03-06T20:32:31.596Z,28.60
2023-03-06T20:35:34.731Z,28.95
2023-03-06T20:38:39.134Z,35.28
2023-03-06T20:41:43.167Z,40.83
2023-03-06T20:44:46.228Z,43.00
2023-03-06T20:47:50.965Z,39.28
2023-03-06T20:51:08.607Z,27.95
2023-03-06T20:54:13.803Z,22.33
2023-03-06T20:57:16.810Z,22.90
2023-03-06T21:00:21.145Z,21.20
2023-03-06T21:03:24.690Z,24.63
2023-03-06T21:06:29.062Z,33.60
2023-03-06T21:09:34.606Z,35.13
2023-03-06T21:12:37.428Z,36.00
2023-03-06T21:15:41.785Z,36.37
2023-03-06T21:18:45.385Z,33.03
2023-03-06T21:21:48.451Z,33.13
2023-03-06T21:24:51.554Z,34.25
2023-03-06T21:27:54.595Z,35.30
2023-03-06T21:31:00.848Z,34.17
2023-03-06T21:34:05.223Z,31.50
2023-03-06T21:37:08.818Z,26.85
2023-03-06T21:40:14.189Z,25.55
2023-03-06T21:43:17.809Z,24.40
2023-03-06T21:46:20.591Z,23.10
2023-03-06T21:49:26.248Z,21.17
2023-03-06T21:52:29.656Z,21.17
2023-03-06T21:55:32.385Z,19.83
2023-03-06T21:58:35.744Z,17.90
2023-03-06T22:01:38.726Z,18.30
2023-03-06T22:04:41.730Z,18.23
2023-03-06T22:07:44.898Z,17.98
2023-03-06T22:10:49.213Z,18.70
2023-03-06T22:13:53.580Z,17.13
2023-03-06T22:16:59.170Z,16.83
2023-03-06T22:20:02.202Z,16.55
2023-03-06T22:23:05.410Z,16.63
2023-03-06T22:26:11.307Z,16.42
2023-03-06T22:29:14.031Z,15.50
2023-03-06T22:32:17.049Z,17.40
2023-03-06T22:35:20.078Z,24.75
2023-03-06T22:38:22.884Z,25.02
2023-03-06T22:41:26.983Z,25.20
2023-03-06T22:44:30.105Z,21.90
2023-03-06T22:47:36.438Z,19.20
2023-03-06T22:50:39.266Z,16.25
2023-03-06T22:53:42.438Z,14.02
2023-03-06T22:56:45.337Z,14.15
2023-03-06T22:59:48.124Z,14.40
2023-03-06T23:02:50.894Z,14.13
2023-03-06T23:05:54.163Z,13.07
2023-03-06T23:08:59.797Z,14.00
2023-03-06T23:12:02.512Z,13.07
2023-03-06T23:15:23.780Z,13.67
2023-03-06T23:18:45.313Z,13.47
2023-03-06T23:22:06.751Z,13.63
2023-03-06T23:25:27.950Z,14.20
2023-03-06T23:28:30.984Z,14.68
2023-03-06T23:31:33.959Z,13.90
2023-03-06T23:34:37.073Z,15.87
2023-03-06T23:37:39.859Z,16.98
2023-03-06T23:40:42.705Z,17.35
2023-03-06T23:43:46.822Z,14.95
2023-03-06T23:46:49.611Z,14.23
2023-03-06T23:49:52.336Z,16.40
2023-03-06T23:52:55.545Z,15.93
2023-03-06T23:55:58.486Z,14.98
2023-03-06T23:59:01.399Z,15.65
